sensor_id;sensor_type;location;lat;lon;timestamp;P1;durP1;ratioP1;P2;durP2;ratioP2
47529;SDS011;33272;51.922;7.730;2022-12-18T00:02:21;34.10;;;19.10;;
47529;SDS011;33272;51.922;7.730;2022-12-18T00:04:48;40.33;;;18.80;;
47529;SDS011;33272;51.922;7.730;2022-12-18T00:07:15;34.43;;;19.33;;
47529;SDS011;33272;51.922;7.730;2022-12-18T00:09:42;43.70;;;19.40;;
47529;SDS011;33272;51.922;7.730;2022-12-18T00:12:08;41.67;;;20.73;;
47529;SDS011;33272;51.922;7.730;2022-12-18T00:14:37;36.03;;;19.37;;
47529;SDS011;33272;51.922;7.730;2022-12-18T00:17:04;37.97;;;18.90;;
47529;SDS011;33272;51.922;7.730;2022-12-18T00:19:31;37.67;;;20.07;;
47529;SDS011;33272;51.922;7.730;2022-12-18T00:21:58;39.97;;;18.87;;
47529;SDS011;33272;51.922;7.730;2022-12-18T00:24:25;43.33;;;20.73;;
47529;SDS011;33272;51.922;7.730;2022-12-18T00:26:52;36.77;;;20.30;;
47529;SDS011;33272;51.922;7.730;2022-12-18T00:29:19;36.00;;;20.13;;
47529;SDS011;33272;51.922;7.730;2022-12-18T00:31:47;40.87;;;21.73;;
47529;SDS011;33272;51.922;7.730;2022-12-18T00:34:14;39.80;;;20.07;;
47529;SDS011;33272;51.922;7.730;2022-12-18T00:36:41;38.43;;;19.43;;
47529;SDS011;33272;51.922;7.730;2022-12-18T00:39:09;34.50;;;18.90;;
47529;SDS011;33272;51.922;7.730;2022-12-18T00:41:37;35.80;;;19.13;;
47529;SDS011;33272;51.922;7.730;2022-12-18T00:44:22;39.13;;;19.20;;
47529;SDS011;33272;51.922;7.730;2022-12-18T00:46:50;33.07;;;18.13;;
47529;SDS011;33272;51.922;7.730;2022-12-18T00:49:18;38.60;;;19.90;;
47529;SDS011;33272;51.922;7.730;2022-12-18T00:51:45;37.23;;;20.13;;
47529;SDS011;33272;51.922;7.730;2022-12-18T00:54:13;39.30;;;19.03;;
47529;SDS011;33272;51.922;7.730;2022-12-18T00:56:40;35.33;;;19.87;;
47529;SDS011;33272;51.922;7.730;2022-12-18T00:59:07;41.83;;;19.17;;
47529;SDS011;33272;51.922;7.730;2022-12-18T01:01:34;33.07;;;19.00;;
47529;SDS011;33272;51.922;7.730;2022-12-18T01:04:03;40.30;;;20.00;;
47529;SDS011;33272;51.922;7.730;2022-12-18T01:06:31;34.13;;;17.70;;
47529;SDS011;33272;51.922;7.730;2022-12-18T01:08:58;40.73;;;20.43;;
47529;SDS011;33272;51.922;7.730;2022-12-18T01:11:25;32.77;;;19.80;;
47529;SDS011;33272;51.922;7.730;2022-12-18T01:13:52;37.47;;;19.10;;
47529;SDS011;33272;51.922;7.730;2022-12-18T01:16:20;35.43;;;19.33;;
47529;SDS011;33272;51.922;7.730;2022-12-18T01:18:50;39.43;;;20.10;;
47529;SDS011;33272;51.922;7.730;2022-12-18T01:21:20;34.83;;;18.50;;
47529;SDS011;33272;51.922;7.730;2022-12-18T01:23:50;33.10;;;17.90;;
47529;SDS011;33272;51.922;7.730;2022-12-18T01:26:19;42.00;;;19.73;;
47529;SDS011;33272;51.922;7.730;2022-12-18T01:28:46;39.53;;;20.40;;
47529;SDS011;33272;51.922;7.730;2022-12-18T01:31:15;35.70;;;20.10;;
47529;SDS011;33272;51.922;7.730;2022-12-18T01:33:44;35.60;;;19.33;;
47529;SDS011;33272;51.922;7.730;2022-12-18T01:36:19;36.43;;;20.20;;
47529;SDS011;33272;51.922;7.730;2022-12-18T01:38:50;40.27;;;20.83;;
47529;SDS011;33272;51.922;7.730;2022-12-18T01:41:18;38.53;;;19.37;;
47529;SDS011;33272;51.922;7.730;2022-12-18T01:43:50;33.47;;;18.73;;
47529;SDS011;33272;51.922;7.730;2022-12-18T01:46:20;38.77;;;18.33;;
47529;SDS011;33272;51.922;7.730;2022-12-18T01:48:50;38.07;;;19.20;;
47529;SDS011;33272;51.922;7.730;2022-12-18T01:51:19;35.17;;;18.37;;
47529;SDS011;33272;51.922;7.730;2022-12-18T01:53:48;32.77;;;17.70;;
47529;SDS011;33272;51.922;7.730;2022-12-18T01:56:16;36.23;;;18.57;;
47529;SDS011;33272;51.922;7.730;2022-12-18T01:58:50;33.80;;;19.80;;
47529;SDS011;33272;51.922;7.730;2022-12-18T02:01:22;37.07;;;19.13;;
47529;SDS011;33272;51.922;7.730;2022-12-18T02:03:51;37.87;;;19.33;;
47529;SDS011;33272;51.922;7.730;2022-12-18T02:06:19;37.63;;;20.43;;
47529;SDS011;33272;51.922;7.730;2022-12-18T02:08:58;42.97;;;20.50;;
47529;SDS011;33272;51.922;7.730;2022-12-18T02:11:39;36.37;;;19.23;;
47529;SDS011;33272;51.922;7.730;2022-12-18T02:14:21;36.97;;;17.80;;
47529;SDS011;33272;51.922;7.730;2022-12-18T02:16:59;39.50;;;19.97;;
47529;SDS011;33272;51.922;7.730;2022-12-18T02:19:37;35.97;;;18.97;;
47529;SDS011;33272;51.922;7.730;2022-12-18T02:22:21;38.53;;;19.97;;
47529;SDS011;33272;51.922;7.730;2022-12-18T02:25:01;35.93;;;19.90;;
47529;SDS011;33272;51.922;7.730;2022-12-18T02:27:44;37.83;;;19.63;;
47529;SDS011;33272;51.922;7.730;2022-12-18T02:30:15;33.63;;;18.40;;
47529;SDS011;33272;51.922;7.730;2022-12-18T02:32:44;38.07;;;19.83;;
47529;SDS011;33272;51.922;7.730;2022-12-18T02:35:15;35.10;;;19.13;;
47529;SDS011;33272;51.922;7.730;2022-12-18T02:37:48;34.73;;;20.23;;
47529;SDS011;33272;51.922;7.730;2022-12-18T02:40:15;39.53;;;20.30;;
47529;SDS011;33272;51.922;7.730;2022-12-18T02:42:46;37.30;;;19.83;;
47529;SDS011;33272;51.922;7.730;2022-12-18T02:45:13;37.90;;;20.33;;
47529;SDS011;33272;51.922;7.730;2022-12-18T02:47:41;40.27;;;20.77;;
47529;SDS011;33272;51.922;7.730;2022-12-18T02:50:13;38.93;;;20.87;;
47529;SDS011;33272;51.922;7.730;2022-12-18T02:52:49;37.43;;;20.33;;
47529;SDS011;33272;51.922;7.730;2022-12-18T02:55:29;40.40;;;20.73;;
47529;SDS011;33272;51.922;7.730;2022-12-18T02:58:13;37.60;;;20.57;;
47529;SDS011;33272;51.922;7.730;2022-12-18T03:00:48;36.10;;;20.27;;
47529;SDS011;33272;51.922;7.730;2022-12-18T03:03:20;37.60;;;19.50;;
47529;SDS011;33272;51.922;7.730;2022-12-18T03:05:56;39.23;;;20.67;;
47529;SDS011;33272;51.922;7.730;2022-12-18T03:08:32;36.87;;;19.47;;
47529;SDS011;33272;51.922;7.730;2022-12-18T03:11:04;31.67;;;19.70;;
47529;SDS011;33272;51.922;7.730;2022-12-18T03:13:36;32.30;;;18.67;;
47529;SDS011;33272;51.922;7.730;2022-12-18T03:16:10;33.77;;;19.17;;
47529;SDS011;33272;51.922;7.730;2022-12-18T03:18:43;42.27;;;21.80;;
47529;SDS011;33272;51.922;7.730;2022-12-18T03:21:14;41.00;;;21.33;;
47529;SDS011;33272;51.922;7.730;2022-12-18T03:23:48;37.53;;;18.73;;
47529;SDS011;33272;51.922;7.730;2022-12-18T03:26:18;42.23;;;20.03;;
47529;SDS011;33272;51.922;7.730;2022-12-18T03:28:51;34.53;;;18.73;;
47529;SDS011;33272;51.922;7.730;2022-12-18T03:31:21;35.63;;;20.00;;
47529;SDS011;33272;51.922;7.730;2022-12-18T03:33:51;33.23;;;20.63;;
47529;SDS011;33272;51.922;7.730;2022-12-18T03:36:20;38.10;;;18.70;;
47529;SDS011;33272;51.922;7.730;2022-12-18T03:38:48;35.37;;;19.50;;
47529;SDS011;33272;51.922;7.730;2022-12-18T03:41:17;38.13;;;19.50;;
47529;SDS011;33272;51.922;7.730;2022-12-18T03:43:55;30.90;;;18.27;;
47529;SDS011;33272;51.922;7.730;2022-12-18T03:46:30;34.33;;;18.87;;
47529;SDS011;33272;51.922;7.730;2022-12-18T03:49:08;30.20;;;19.30;;
47529;SDS011;33272;51.922;7.730;2022-12-18T03:51:39;35.00;;;20.60;;
47529;SDS011;33272;51.922;7.730;2022-12-18T03:54:14;37.17;;;20.53;;
47529;SDS011;33272;51.922;7.730;2022-12-18T03:56:43;37.87;;;18.93;;
47529;SDS011;33272;51.922;7.730;2022-12-18T03:59:16;34.30;;;18.77;;
47529;SDS011;33272;51.922;7.730;2022-12-18T04:01:46;37.57;;;20.13;;
47529;SDS011;33272;51.922;7.730;2022-12-18T04:04:18;36.70;;;20.63;;
47529;SDS011;33272;51.922;7.730;2022-12-18T04:06:46;37.23;;;18.93;;
47529;SDS011;33272;51.922;7.730;2022-12-18T04:09:15;45.03;;;20.37;;
47529;SDS011;33272;51.922;7.730;2022-12-18T04:11:42;36.27;;;19.97;;
47529;SDS011;33272;51.922;7.730;2022-12-18T04:14:09;37.97;;;19.93;;
47529;SDS011;33272;51.922;7.730;2022-12-18T04:16:38;31.57;;;18.23;;
47529;SDS011;33272;51.922;7.730;2022-12-18T04:19:05;36.70;;;19.73;;
47529;SDS011;33272;51.922;7.730;2022-12-18T04:21:32;34.90;;;18.43;;
47529;SDS011;33272;51.922;7.730;2022-12-18T04:23:59;34.33;;;18.50;;
47529;SDS011;33272;51.922;7.730;2022-12-18T04:26:26;38.47;;;18.93;;
47529;SDS011;33272;51.922;7.730;2022-12-18T04:28:53;33.17;;;19.00;;
47529;SDS011;33272;51.922;7.730;2022-12-18T04:31:20;34.70;;;17.80;;
47529;SDS011;33272;51.922;7.730;2022-12-18T04:33:48;31.73;;;16.90;;
47529;SDS011;33272;51.922;7.730;2022-12-18T04:36:15;27.90;;;16.97;;
47529;SDS011;33272;51.922;7.730;2022-12-18T04:38:42;28.10;;;15.80;;
47529;SDS011;33272;51.922;7.730;2022-12-18T04:41:09;33.03;;;18.57;;
47529;SDS011;33272;51.922;7.730;2022-12-18T04:43:36;35.73;;;17.23;;
47529;SDS011;33272;51.922;7.730;2022-12-18T04:46:03;32.87;;;17.80;;
47529;SDS011;33272;51.922;7.730;2022-12-18T04:48:32;30.13;;;17.97;;
47529;SDS011;33272;51.922;7.730;2022-12-18T04:51:01;31.23;;;18.80;;
47529;SDS011;33272;51.922;7.730;2022-12-18T04:53:28;29.33;;;16.77;;
47529;SDS011;33272;51.922;7.730;2022-12-18T04:56:04;23.47;;;13.57;;
47529;SDS011;33272;51.922;7.730;2022-12-18T04:58:34;29.50;;;17.10;;
47529;SDS011;33272;51.922;7.730;2022-12-18T05:01:01;25.13;;;16.10;;
47529;SDS011;33272;51.922;7.730;2022-12-18T05:03:29;22.83;;;13.33;;
47529;SDS011;33272;51.922;7.730;2022-12-18T05:05:56;26.43;;;14.73;;
47529;SDS011;33272;51.922;7.730;2022-12-18T05:08:25;24.07;;;14.27;;
47529;SDS011;33272;51.922;7.730;2022-12-18T05:10:57;27.43;;;13.93;;
47529;SDS011;33272;51.922;7.730;2022-12-18T05:13:26;24.23;;;15.40;;
47529;SDS011;33272;51.922;7.730;2022-12-18T05:15:53;26.23;;;15.27;;
47529;SDS011;33272;51.922;7.730;2022-12-18T05:18:20;28.20;;;15.13;;
47529;SDS011;33272;51.922;7.730;2022-12-18T05:20:48;28.67;;;15.63;;
47529;SDS011;33272;51.922;7.730;2022-12-18T05:23:16;20.57;;;13.13;;
47529;SDS011;33272;51.922;7.730;2022-12-18T05:25:47;23.80;;;15.10;;
47529;SDS011;33272;51.922;7.730;2022-12-18T05:28:17;26.83;;;15.53;;
47529;SDS011;33272;51.922;7.730;2022-12-18T05:30:46;29.83;;;16.07;;
47529;SDS011;33272;51.922;7.730;2022-12-18T05:33:15;26.50;;;15.20;;
47529;SDS011;33272;51.922;7.730;2022-12-18T05:35:43;22.63;;;14.83;;
47529;SDS011;33272;51.922;7.730;2022-12-18T05:38:10;25.97;;;15.27;;
47529;SDS011;33272;51.922;7.730;2022-12-18T05:40:37;30.50;;;16.13;;
47529;SDS011;33272;51.922;7.730;2022-12-18T05:43:08;28.23;;;15.63;;
47529;SDS011;33272;51.922;7.730;2022-12-18T05:45:36;24.13;;;15.50;;
47529;SDS011;33272;51.922;7.730;2022-12-18T05:48:04;27.03;;;16.00;;
47529;SDS011;33272;51.922;7.730;2022-12-18T05:50:33;22.07;;;14.17;;
47529;SDS011;33272;51.922;7.730;2022-12-18T05:53:00;28.17;;;15.60;;
47529;SDS011;33272;51.922;7.730;2022-12-18T05:55:28;24.50;;;14.73;;
47529;SDS011;33272;51.922;7.730;2022-12-18T05:57:55;23.03;;;13.97;;
47529;SDS011;33272;51.922;7.730;2022-12-18T06:00:23;24.33;;;14.83;;
47529;SDS011;33272;51.922;7.730;2022-12-18T06:02:50;24.07;;;13.47;;
47529;SDS011;33272;51.922;7.730;2022-12-18T06:05:17;26.40;;;14.43;;
47529;SDS011;33272;51.922;7.730;2022-12-18T06:07:44;24.17;;;13.57;;
47529;SDS011;33272;51.922;7.730;2022-12-18T06:10:11;24.50;;;14.17;;
47529;SDS011;33272;51.922;7.730;2022-12-18T06:12:38;24.17;;;14.93;;
47529;SDS011;33272;51.922;7.730;2022-12-18T06:15:05;26.13;;;13.17;;
47529;SDS011;33272;51.922;7.730;2022-12-18T06:17:35;22.57;;;13.20;;
47529;SDS011;33272;51.922;7.730;2022-12-18T06:20:02;20.10;;;11.97;;
47529;SDS011;33272;51.922;7.730;2022-12-18T06:22:31;19.90;;;12.17;;
47529;SDS011;33272;51.922;7.730;2022-12-18T06:24:59;24.83;;;13.20;;
47529;SDS011;33272;51.922;7.730;2022-12-18T06:27:26;22.80;;;13.73;;
47529;SDS011;33272;51.922;7.730;2022-12-18T06:29:53;21.23;;;12.93;;
47529;SDS011;33272;51.922;7.730;2022-12-18T06:32:20;21.97;;;12.73;;
47529;SDS011;33272;51.922;7.730;2022-12-18T06:34:49;21.70;;;13.00;;
47529;SDS011;33272;51.922;7.730;2022-12-18T06:37:16;20.57;;;12.80;;
47529;SDS011;33272;51.922;7.730;2022-12-18T06:39:43;22.23;;;13.47;;
47529;SDS011;33272;51.922;7.730;2022-12-18T06:42:10;18.30;;;11.97;;
47529;SDS011;33272;51.922;7.730;2022-12-18T06:44:37;18.17;;;11.77;;
47529;SDS011;33272;51.922;7.730;2022-12-18T06:47:04;19.93;;;11.00;;
47529;SDS011;33272;51.922;7.730;2022-12-18T06:49:31;18.37;;;10.67;;
47529;SDS011;33272;51.922;7.730;2022-12-18T06:51:59;18.07;;;10.67;;
47529;SDS011;33272;51.922;7.730;2022-12-18T06:54:26;18.07;;;10.97;;
47529;SDS011;33272;51.922;7.730;2022-12-18T06:56:53;16.37;;;11.50;;
47529;SDS011;33272;51.922;7.730;2022-12-18T06:59:21;18.57;;;11.03;;
47529;SDS011;33272;51.922;7.730;2022-12-18T07:01:48;19.83;;;11.20;;
47529;SDS011;33272;51.922;7.730;2022-12-18T07:04:15;18.27;;;10.70;;
47529;SDS011;33272;51.922;7.730;2022-12-18T07:06:42;18.33;;;11.33;;
47529;SDS011;33272;51.922;7.730;2022-12-18T07:09:10;14.87;;;10.30;;
47529;SDS011;33272;51.922;7.730;2022-12-18T07:11:37;20.20;;;11.83;;
47529;SDS011;33272;51.922;7.730;2022-12-18T07:14:04;15.00;;;10.20;;
47529;SDS011;33272;51.922;7.730;2022-12-18T07:16:31;16.10;;;10.53;;
47529;SDS011;33272;51.922;7.730;2022-12-18T07:18:58;18.87;;;10.77;;
47529;SDS011;33272;51.922;7.730;2022-12-18T07:21:25;33.33;;;17.07;;
47529;SDS011;33272;51.922;7.730;2022-12-18T07:23:52;29.60;;;16.63;;
47529;SDS011;33272;51.922;7.730;2022-12-18T07:26:21;30.90;;;17.07;;
47529;SDS011;33272;51.922;7.730;2022-12-18T07:28:48;23.00;;;13.57;;
47529;SDS011;33272;51.922;7.730;2022-12-18T07:31:17;20.13;;;12.53;;
47529;SDS011;33272;51.922;7.730;2022-12-18T07:33:46;19.83;;;12.17;;
47529;SDS011;33272;51.922;7.730;2022-12-18T07:36:13;22.53;;;12.73;;
47529;SDS011;33272;51.922;7.730;2022-12-18T07:38:40;16.40;;;10.00;;
47529;SDS011;33272;51.922;7.730;2022-12-18T07:41:08;16.87;;;10.27;;
47529;SDS011;33272;51.922;7.730;2022-12-18T07:43:39;16.73;;;9.73;;
47529;SDS011;33272;51.922;7.730;2022-12-18T07:46:07;18.47;;;12.53;;
47529;SDS011;33272;51.922;7.730;2022-12-18T07:48:35;19.87;;;14.13;;
47529;SDS011;33272;51.922;7.730;2022-12-18T07:51:04;20.20;;;14.13;;
47529;SDS011;33272;51.922;7.730;2022-12-18T07:53:33;18.73;;;12.07;;
47529;SDS011;33272;51.922;7.730;2022-12-18T07:56:02;14.43;;;10.67;;
47529;SDS011;33272;51.922;7.730;2022-12-18T07:58:32;21.87;;;14.30;;
47529;SDS011;33272;51.922;7.730;2022-12-18T08:01:04;17.87;;;11.60;;
47529;SDS011;33272;51.922;7.730;2022-12-18T08:03:33;18.00;;;12.57;;
47529;SDS011;33272;51.922;7.730;2022-12-18T08:06:01;14.50;;;9.60;;
47529;SDS011;33272;51.922;7.730;2022-12-18T08:08:29;18.63;;;12.13;;
47529;SDS011;33272;51.922;7.730;2022-12-18T08:10:57;16.53;;;10.50;;
47529;SDS011;33272;51.922;7.730;2022-12-18T08:13:24;16.87;;;11.87;;
47529;SDS011;33272;51.922;7.730;2022-12-18T08:15:55;20.77;;;13.77;;
47529;SDS011;33272;51.922;7.730;2022-12-18T08:18:25;18.27;;;10.67;;
47529;SDS011;33272;51.922;7.730;2022-12-18T08:20:52;15.23;;;9.60;;
47529;SDS011;33272;51.922;7.730;2022-12-18T08:23:20;14.23;;;8.83;;
47529;SDS011;33272;51.922;7.730;2022-12-18T08:25:47;17.50;;;10.13;;
47529;SDS011;33272;51.922;7.730;2022-12-18T08:28:14;12.20;;;9.47;;
47529;SDS011;33272;51.922;7.730;2022-12-18T08:30:41;13.30;;;9.50;;
47529;SDS011;33272;51.922;7.730;2022-12-18T08:33:08;16.60;;;10.83;;
47529;SDS011;33272;51.922;7.730;2022-12-18T08:35:37;16.03;;;10.37;;
47529;SDS011;33272;51.922;7.730;2022-12-18T08:38:04;19.30;;;12.17;;
47529;SDS011;33272;51.922;7.730;2022-12-18T08:40:31;18.43;;;12.63;;
47529;SDS011;33272;51.922;7.730;2022-12-18T08:42:58;16.30;;;11.63;;
47529;SDS011;33272;51.922;7.730;2022-12-18T08:45:42;14.87;;;10.60;;
47529;SDS011;33272;51.922;7.730;2022-12-18T08:48:09;12.30;;;10.10;;
47529;SDS011;33272;51.922;7.730;2022-12-18T08:50:38;13.50;;;9.20;;
47529;SDS011;33272;51.922;7.730;2022-12-18T08:53:04;15.97;;;11.30;;
47529;SDS011;33272;51.922;7.730;2022-12-18T08:55:34;16.13;;;10.40;;
47529;SDS011;33272;51.922;7.730;2022-12-18T08:58:01;14.50;;;10.17;;
47529;SDS011;33272;51.922;7.730;2022-12-18T09:00:28;13.63;;;10.37;;
47529;SDS011;33272;51.922;7.730;2022-12-18T09:02:55;15.23;;;11.50;;
47529;SDS011;33272;51.922;7.730;2022-12-18T09:05:22;17.47;;;11.80;;
47529;SDS011;33272;51.922;7.730;2022-12-18T09:07:50;17.07;;;11.77;;
47529;SDS011;33272;51.922;7.730;2022-12-18T09:10:17;15.10;;;11.50;;
47529;SDS011;33272;51.922;7.730;2022-12-18T09:12:44;15.30;;;11.07;;
47529;SDS011;33272;51.922;7.730;2022-12-18T09:15:11;15.67;;;11.53;;
47529;SDS011;33272;51.922;7.730;2022-12-18T09:17:38;11.77;;;9.43;;
47529;SDS011;33272;51.922;7.730;2022-12-18T09:20:05;18.07;;;8.97;;
47529;SDS011;33272;51.922;7.730;2022-12-18T09:25:05;11.90;;;8.03;;
47529;SDS011;33272;51.922;7.730;2022-12-18T09:27:33;13.27;;;8.73;;
47529;SDS011;33272;51.922;7.730;2022-12-18T09:30:00;10.63;;;8.10;;
47529;SDS011;33272;51.922;7.730;2022-12-18T09:32:27;14.83;;;9.43;;
47529;SDS011;33272;51.922;7.730;2022-12-18T09:34:54;13.67;;;8.83;;
47529;SDS011;33272;51.922;7.730;2022-12-18T09:37:21;11.37;;;8.37;;
47529;SDS011;33272;51.922;7.730;2022-12-18T09:39:48;12.57;;;8.90;;
47529;SDS011;33272;51.922;7.730;2022-12-18T09:42:19;13.17;;;9.00;;
47529;SDS011;33272;51.922;7.730;2022-12-18T09:44:49;11.47;;;8.57;;
47529;SDS011;33272;51.922;7.730;2022-12-18T09:47:20;14.20;;;9.00;;
47529;SDS011;33272;51.922;7.730;2022-12-18T09:49:52;15.77;;;10.63;;
47529;SDS011;33272;51.922;7.730;2022-12-18T09:52:25;14.63;;;10.93;;
47529;SDS011;33272;51.922;7.730;2022-12-18T09:54:57;16.07;;;10.13;;
47529;SDS011;33272;51.922;7.730;2022-12-18T09:57:31;17.03;;;12.07;;
47529;SDS011;33272;51.922;7.730;2022-12-18T10:00:03;13.43;;;9.70;;
47529;SDS011;33272;51.922;7.730;2022-12-18T10:02:37;13.00;;;8.20;;
47529;SDS011;33272;51.922;7.730;2022-12-18T10:05:05;11.27;;;7.93;;
47529;SDS011;33272;51.922;7.730;2022-12-18T10:07:43;12.50;;;8.60;;
47529;SDS011;33272;51.922;7.730;2022-12-18T10:10:23;11.57;;;8.40;;
47529;SDS011;33272;51.922;7.730;2022-12-18T10:13:05;12.37;;;8.40;;
47529;SDS011;33272;51.922;7.730;2022-12-18T10:15:45;13.03;;;7.87;;
47529;SDS011;33272;51.922;7.730;2022-12-18T10:18:26;11.57;;;8.40;;
47529;SDS011;33272;51.922;7.730;2022-12-18T10:21:08;10.60;;;8.07;;
47529;SDS011;33272;51.922;7.730;2022-12-18T10:23:39;13.27;;;9.97;;
47529;SDS011;33272;51.922;7.730;2022-12-18T10:26:17;12.73;;;9.60;;
47529;SDS011;33272;51.922;7.730;2022-12-18T10:28:46;12.90;;;9.33;;
47529;SDS011;33272;51.922;7.730;2022-12-18T10:31:14;13.17;;;9.73;;
47529;SDS011;33272;51.922;7.730;2022-12-18T10:33:44;13.43;;;9.87;;
47529;SDS011;33272;51.922;7.730;2022-12-18T10:36:12;14.47;;;9.53;;
47529;SDS011;33272;51.922;7.730;2022-12-18T10:38:39;13.23;;;8.67;;
47529;SDS011;33272;51.922;7.730;2022-12-18T10:41:22;13.23;;;8.53;;
47529;SDS011;33272;51.922;7.730;2022-12-18T10:44:10;10.43;;;7.67;;
47529;SDS011;33272;51.922;7.730;2022-12-18T10:46:43;13.50;;;9.40;;
47529;SDS011;33272;51.922;7.730;2022-12-18T10:49:18;10.37;;;7.70;;
47529;SDS011;33272;51.922;7.730;2022-12-18T10:51:49;11.93;;;8.43;;
47529;SDS011;33272;51.922;7.730;2022-12-18T10:54:18;11.53;;;9.10;;
47529;SDS011;33272;51.922;7.730;2022-12-18T10:56:48;11.33;;;8.50;;
47529;SDS011;33272;51.922;7.730;2022-12-18T10:59:17;10.67;;;8.73;;
47529;SDS011;33272;51.922;7.730;2022-12-18T11:01:45;12.93;;;9.17;;
47529;SDS011;33272;51.922;7.730;2022-12-18T11:04:17;12.10;;;8.63;;
47529;SDS011;33272;51.922;7.730;2022-12-18T11:06:52;10.97;;;8.27;;
47529;SDS011;33272;51.922;7.730;2022-12-18T11:09:25;11.70;;;9.20;;
47529;SDS011;33272;51.922;7.730;2022-12-18T11:11:54;13.53;;;8.97;;
47529;SDS011;33272;51.922;7.730;2022-12-18T11:14:27;12.13;;;8.50;;
47529;SDS011;33272;51.922;7.730;2022-12-18T11:16:57;12.10;;;8.53;;
47529;SDS011;33272;51.922;7.730;2022-12-18T11:19:28;11.23;;;8.17;;
47529;SDS011;33272;51.922;7.730;2022-12-18T11:21:59;11.93;;;9.00;;
47529;SDS011;33272;51.922;7.730;2022-12-18T11:24:30;10.80;;;8.73;;
47529;SDS011;33272;51.922;7.730;2022-12-18T11:27:00;11.90;;;8.73;;
47529;SDS011;33272;51.922;7.730;2022-12-18T11:29:35;11.43;;;8.70;;
47529;SDS011;33272;51.922;7.730;2022-12-18T11:35:03;11.87;;;8.77;;
47529;SDS011;33272;51.922;7.730;2022-12-18T11:37:43;12.93;;;8.30;;
47529;SDS011;33272;51.922;7.730;2022-12-18T11:40:17;11.23;;;8.53;;
47529;SDS011;33272;51.922;7.730;2022-12-18T11:42:50;11.47;;;8.90;;
47529;SDS011;33272;51.922;7.730;2022-12-18T11:45:29;11.60;;;8.40;;
47529;SDS011;33272;51.922;7.730;2022-12-18T11:48:02;12.33;;;8.90;;
47529;SDS011;33272;51.922;7.730;2022-12-18T11:50:40;11.27;;;8.63;;
47529;SDS011;33272;51.922;7.730;2022-12-18T11:53:14;10.83;;;9.07;;
47529;SDS011;33272;51.922;7.730;2022-12-18T11:55:43;12.43;;;8.63;;
47529;SDS011;33272;51.922;7.730;2022-12-18T11:58:35;10.20;;;7.83;;
47529;SDS011;33272;51.922;7.730;2022-12-18T12:01:21;12.03;;;8.73;;
47529;SDS011;33272;51.922;7.730;2022-12-18T12:04:12;11.97;;;8.70;;
47529;SDS011;33272;51.922;7.730;2022-12-18T12:07:20;15.73;;;10.83;;
47529;SDS011;33272;51.922;7.730;2022-12-18T12:10:01;11.03;;;9.27;;
47529;SDS011;33272;51.922;7.730;2022-12-18T12:12:47;12.60;;;10.37;;
47529;SDS011;33272;51.922;7.730;2022-12-18T12:15:29;10.83;;;9.47;;
47529;SDS011;33272;51.922;7.730;2022-12-18T12:18:16;10.43;;;8.33;;
47529;SDS011;33272;51.922;7.730;2022-12-18T12:21:00;13.03;;;9.07;;
47529;SDS011;33272;51.922;7.730;2022-12-18T12:23:37;13.70;;;9.30;;
47529;SDS011;33272;51.922;7.730;2022-12-18T12:26:15;14.47;;;10.70;;
47529;SDS011;33272;51.922;7.730;2022-12-18T12:28:56;10.87;;;9.00;;
47529;SDS011;33272;51.922;7.730;2022-12-18T12:31:40;10.40;;;9.30;;
47529;SDS011;33272;51.922;7.730;2022-12-18T12:34:25;11.70;;;9.27;;
47529;SDS011;33272;51.922;7.730;2022-12-18T12:37:04;11.10;;;8.63;;
47529;SDS011;33272;51.922;7.730;2022-12-18T12:39:47;10.80;;;8.93;;
47529;SDS011;33272;51.922;7.730;2022-12-18T12:42:16;12.33;;;9.03;;
47529;SDS011;33272;51.922;7.730;2022-12-18T12:45:13;11.43;;;9.73;;
47529;SDS011;33272;51.922;7.730;2022-12-18T12:47:49;11.90;;;9.00;;
47529;SDS011;33272;51.922;7.730;2022-12-18T12:50:20;10.83;;;8.47;;
47529;SDS011;33272;51.922;7.730;2022-12-18T12:52:49;11.77;;;8.07;;
47529;SDS011;33272;51.922;7.730;2022-12-18T12:55:20;10.30;;;7.40;;
47529;SDS011;33272;51.922;7.730;2022-12-18T12:57:52;12.27;;;8.63;;
47529;SDS011;33272;51.922;7.730;2022-12-18T13:00:30;10.37;;;7.70;;
47529;SDS011;33272;51.922;7.730;2022-12-18T13:03:07;11.73;;;8.50;;
47529;SDS011;33272;51.922;7.730;2022-12-18T13:05:45;11.73;;;8.47;;
47529;SDS011;33272;51.922;7.730;2022-12-18T13:08:22;12.97;;;9.23;;
47529;SDS011;33272;51.922;7.730;2022-12-18T13:10:51;9.37;;;7.93;;
47529;SDS011;33272;51.922;7.730;2022-12-18T13:13:47;38.90;;;27.63;;
47529;SDS011;33272;51.922;7.730;2022-12-18T13:16:17;13.40;;;10.40;;
47529;SDS011;33272;51.922;7.730;2022-12-18T13:18:49;11.30;;;8.20;;
47529;SDS011;33272;51.922;7.730;2022-12-18T13:21:20;11.30;;;8.00;;
47529;SDS011;33272;51.922;7.730;2022-12-18T13:23:50;11.57;;;8.17;;
47529;SDS011;33272;51.922;7.730;2022-12-18T13:26:31;11.00;;;8.03;;
47529;SDS011;33272;51.922;7.730;2022-12-18T13:28:59;10.30;;;7.83;;
47529;SDS011;33272;51.922;7.730;2022-12-18T13:34:26;9.97;;;7.63;;
47529;SDS011;33272;51.922;7.730;2022-12-18T13:36:57;10.47;;;8.10;;
47529;SDS011;33272;51.922;7.730;2022-12-18T13:43:28;13.00;;;8.33;;
47529;SDS011;33272;51.922;7.730;2022-12-18T13:46:03;10.97;;;8.57;;
47529;SDS011;33272;51.922;7.730;2022-12-18T13:48:48;11.30;;;8.67;;
47529;SDS011;33272;51.922;7.730;2022-12-18T13:51:22;10.93;;;8.23;;
47529;SDS011;33272;51.922;7.730;2022-12-18T13:53:53;10.63;;;7.93;;
47529;SDS011;33272;51.922;7.730;2022-12-18T13:56:25;9.83;;;7.43;;
47529;SDS011;33272;51.922;7.730;2022-12-18T14:01:45;11.27;;;8.47;;
47529;SDS011;33272;51.922;7.730;2022-12-18T14:04:19;9.60;;;7.57;;
47529;SDS011;33272;51.922;7.730;2022-12-18T14:06:54;9.90;;;7.70;;
47529;SDS011;33272;51.922;7.730;2022-12-18T14:09:27;8.47;;;7.53;;
47529;SDS011;33272;51.922;7.730;2022-12-18T14:11:56;9.97;;;7.60;;
47529;SDS011;33272;51.922;7.730;2022-12-18T14:14:38;9.93;;;8.70;;
47529;SDS011;33272;51.922;7.730;2022-12-18T14:17:10;9.83;;;8.10;;
47529;SDS011;33272;51.922;7.730;2022-12-18T14:19:40;13.23;;;9.10;;
47529;SDS011;33272;51.922;7.730;2022-12-18T14:22:19;10.00;;;8.03;;
47529;SDS011;33272;51.922;7.730;2022-12-18T14:25:10;15.53;;;11.67;;
47529;SDS011;33272;51.922;7.730;2022-12-18T14:27:43;14.53;;;10.03;;
47529;SDS011;33272;51.922;7.730;2022-12-18T14:30:26;9.97;;;7.87;;
47529;SDS011;33272;51.922;7.730;2022-12-18T14:33:01;10.60;;;8.20;;
47529;SDS011;33272;51.922;7.730;2022-12-18T14:35:30;10.77;;;8.03;;
47529;SDS011;33272;51.922;7.730;2022-12-18T14:38:14;12.57;;;8.77;;
47529;SDS011;33272;51.922;7.730;2022-12-18T14:40:53;10.83;;;8.47;;
47529;SDS011;33272;51.922;7.730;2022-12-18T14:43:23;8.27;;;6.93;;
47529;SDS011;33272;51.922;7.730;2022-12-18T14:45:50;8.13;;;6.50;;
47529;SDS011;33272;51.922;7.730;2022-12-18T14:48:18;8.40;;;6.97;;
47529;SDS011;33272;51.922;7.730;2022-12-18T14:50:54;7.87;;;6.60;;
47529;SDS011;33272;51.922;7.730;2022-12-18T14:53:28;13.23;;;6.87;;
47529;SDS011;33272;51.922;7.730;2022-12-18T14:56:03;9.90;;;7.00;;
47529;SDS011;33272;51.922;7.730;2022-12-18T14:58:46;9.03;;;6.90;;
47529;SDS011;33272;51.922;7.730;2022-12-18T15:01:18;8.80;;;6.53;;
47529;SDS011;33272;51.922;7.730;2022-12-18T15:03:51;8.53;;;6.83;;
47529;SDS011;33272;51.922;7.730;2022-12-18T15:06:25;8.17;;;5.97;;